Time;durP1;ratioP1;P1;durP2;ratioP2;P2;SDS_P1;SDS_P2;PMS_P1;PMS_P2;Temp;Humidity;BMP_temperature;BMP_pressure;BME280_temperature;BME280_humidity;BME280_pressure;Samples;Min_cycle;Max_cycle;Signal;HPM_P1;HPM_P2
2024/01/19 00:02:18;;;;;;;33.78;14.77;;;;;;;;;;5032293;28;20041;-60
2024/01/19 00:04:44;;;;;;;37.53;15.55;;;;;;;;;;5029304;28;20044;-60
2024/01/19 00:07:12;;;;;;;44.50;16.98;;;;;;;;;;5030477;28;20041;-60
2024/01/19 00:09:38;;;;;;;48.38;18.95;;;;;;;;;;5025894;28;20029;-61
2024/01/19 00:12:05;;;;;;;38.67;15.77;;;;;;;;;;5031357;28;20048;-60
2024/01/19 00:14:31;;;;;;;38.05;16.00;;;;;;;;;;5029969;28;20061;-60
2024/01/19 00:16:57;;;;;;;38.20;15.80;;;;;;;;;;5029136;28;20049;-60
2024/01/19 00:19:23;;;;;;;33.00;14.80;;;;;;;;;;5026117;28;20040;-60
2024/01/19 00:21:49;;;;;;;43.22;16.92;;;;;;;;;;5036074;28;20040;-61
2024/01/19 00:24:16;;;;;;;39.63;16.27;;;;;;;;;;5034702;28;20041;-60
2024/01/19 00:26:47;;;;;;;33.53;15.02;;;;;;;;;;5034200;28;20037;-60
2024/01/19 00:29:13;;;;;;;36.58;15.07;;;;;;;;;;5027834;28;20053;-60
2024/01/19 00:31:43;;;;;;;34.83;13.35;;;;;;;;;;5031415;28;20046;-59
2024/01/19 00:34:09;;;;;;;34.35;13.40;;;;;;;;;;5029292;28;20049;-60
2024/01/19 00:36:35;;;;;;;34.65;15.88;;;;;;;;;;5029529;28;20056;-60
2024/01/19 00:39:01;;;;;;;29.52;12.77;;;;;;;;;;5035413;28;20045;-60
2024/01/19 00:41:27;;;;;;;34.63;14.55;;;;;;;;;;5031970;28;20408;-60
2024/01/19 00:43:53;;;;;;;32.10;13.63;;;;;;;;;;5032019;28;20404;-60
2024/01/19 00:46:20;;;;;;;33.50;14.30;;;;;;;;;;5029845;28;20049;-60
2024/01/19 00:48:46;;;;;;;38.80;16.08;;;;;;;;;;5029036;28;20505;-60
2024/01/19 00:51:12;;;;;;;39.92;15.32;;;;;;;;;;5026930;28;20503;-60
2024/01/19 00:53:38;;;;;;;34.85;14.88;;;;;;;;;;5031043;28;20040;-59
2024/01/19 00:56:05;;;;;;;44.42;16.60;;;;;;;;;;5029067;28;20041;-60
2024/01/19 00:58:31;;;;;;;36.70;15.70;;;;;;;;;;5025677;28;20053;-60
2024/01/19 01:00:57;;;;;;;33.58;14.50;;;;;;;;;;5029951;28;20040;-59
2024/01/19 01:03:24;;;;;;;45.42;16.98;;;;;;;;;;5023450;28;20045;-60
2024/01/19 01:05:59;;;;;;;36.47;15.07;;;;;;;;;;5028108;28;20212;-60
2024/01/19 01:08:26;;;;;;;36.22;16.30;;;;;;;;;;5029840;28;20037;-60
2024/01/19 01:10:53;;;;;;;36.25;15.18;;;;;;;;;;5029118;28;20057;-60
2024/01/19 01:13:19;;;;;;;37.42;15.75;;;;;;;;;;5029293;28;20049;-60
2024/01/19 01:15:45;;;;;;;36.85;15.45;;;;;;;;;;5030624;28;20409;-60
2024/01/19 01:18:11;;;;;;;35.63;14.75;;;;;;;;;;5029102;28;20049;-60
2024/01/19 01:20:37;;;;;;;39.03;14.60;;;;;;;;;;5027812;28;20404;-60
2024/01/19 01:23:04;;;;;;;41.03;16.45;;;;;;;;;;5029649;28;20044;-60
2024/01/19 01:25:31;;;;;;;39.67;17.30;;;;;;;;;;5031056;28;20056;-60
2024/01/19 01:27:57;;;;;;;36.53;15.50;;;;;;;;;;5028470;28;20045;-60
2024/01/19 01:30:23;;;;;;;35.25;14.85;;;;;;;;;;5027148;28;20045;-60
2024/01/19 01:32:49;;;;;;;35.92;14.90;;;;;;;;;;5026735;28;20542;-60
2024/01/19 01:35:16;;;;;;;44.25;17.75;;;;;;;;;;5032212;28;20044;-60
2024/01/19 01:37:42;;;;;;;41.40;17.48;;;;;;;;;;5030494;28;20052;-59
2024/01/19 01:40:08;;;;;;;33.30;15.65;;;;;;;;;;5030101;28;20096;-60
2024/01/19 01:42:35;;;;;;;41.20;15.93;;;;;;;;;;5030343;28;20029;-60
2024/01/19 01:45:01;;;;;;;45.75;16.58;;;;;;;;;;5027134;28;20045;-60
2024/01/19 01:47:27;;;;;;;37.60;16.00;;;;;;;;;;5029416;28;20041;-60
2024/01/19 01:49:54;;;;;;;37.63;14.80;;;;;;;;;;5027115;28;20048;-60
2024/01/19 01:52:20;;;;;;;34.65;16.20;;;;;;;;;;5028076;28;20045;-59
2024/01/19 01:54:47;;;;;;;38.40;16.00;;;;;;;;;;5027755;28;20072;-59
2024/01/19 01:57:14;;;;;;;42.38;16.20;;;;;;;;;;5027912;28;20049;-60
2024/01/19 01:59:41;;;;;;;42.35;16.20;;;;;;;;;;5025251;28;20033;-60
2024/01/19 02:02:07;;;;;;;39.85;16.38;;;;;;;;;;5028036;28;20617;-60
2024/01/19 02:04:34;;;;;;;40.20;16.13;;;;;;;;;;5027348;28;20052;-58
2024/01/19 02:07:00;;;;;;;38.95;15.80;;;;;;;;;;5029289;28;20053;-59
2024/01/19 02:09:27;;;;;;;40.40;15.70;;;;;;;;;;5029298;28;20033;-59
2024/01/19 02:11:53;;;;;;;38.78;17.10;;;;;;;;;;5030237;28;20045;-59
2024/01/19 02:14:19;;;;;;;44.42;16.73;;;;;;;;;;5028937;28;20033;-60
2024/01/19 02:16:45;;;;;;;41.25;16.73;;;;;;;;;;5028184;28;20053;-60
2024/01/19 02:19:11;;;;;;;37.80;15.75;;;;;;;;;;5029623;28;20508;-59
2024/01/19 02:21:37;;;;;;;45.00;16.17;;;;;;;;;;5032222;28;20056;-60
2024/01/19 02:24:04;;;;;;;34.55;14.82;;;;;;;;;;5023130;28;20411;-59
2024/01/19 02:26:34;;;;;;;39.60;16.63;;;;;;;;;;5033657;28;20033;-60
2024/01/19 02:29:00;;;;;;;;;;;;;;;;;;5026718;28;20930;-60
2024/01/19 02:31:26;;;;;;;38.13;15.05;;;;;;;;;;5032110;28;19916;-60
2024/01/19 02:33:52;;;;;;;35.15;14.00;;;;;;;;;;5037425;28;20042;-60
2024/01/19 02:36:19;;;;;;;35.90;14.65;;;;;;;;;;5038812;28;20053;-60
2024/01/19 02:38:45;;;;;;;37.17;15.65;;;;;;;;;;5029224;28;20489;-60
2024/01/19 02:41:11;;;;;;;31.13;14.88;;;;;;;;;;5036968;28;20508;-60
2024/01/19 02:43:37;;;;;;;36.35;14.95;;;;;;;;;;5030581;28;20049;-60
2024/01/19 02:46:03;;;;;;;36.83;15.25;;;;;;;;;;5029664;28;20501;-60
2024/01/19 02:48:29;;;;;;;35.22;13.57;;;;;;;;;;5032527;28;20033;-60
2024/01/19 02:50:55;;;;;;;35.53;13.80;;;;;;;;;;5031779;28;20045;-62
2024/01/19 02:53:21;;;;;;;31.52;14.38;;;;;;;;;;5030743;28;20041;-62
2024/01/19 02:55:48;;;;;;;36.05;14.93;;;;;;;;;;5032420;28;20056;-61
2024/01/19 02:58:14;;;;;;;33.72;13.98;;;;;;;;;;5029675;28;20041;-61
2024/01/19 03:00:40;;;;;;;34.65;13.70;;;;;;;;;;5029909;28;20037;-61
2024/01/19 03:03:06;;;;;;;35.95;14.50;;;;;;;;;;5029517;28;20060;-59
2024/01/19 03:05:32;;;;;;;34.40;14.32;;;;;;;;;;5033813;28;20036;-58
2024/01/19 03:07:58;;;;;;;34.78;14.75;;;;;;;;;;5033582;28;20038;-59
2024/01/19 03:10:24;;;;;;;31.48;14.18;;;;;;;;;;5031909;28;20619;-59
2024/01/19 03:12:50;;;;;;;32.05;13.93;;;;;;;;;;5037909;28;20060;-59
2024/01/19 03:15:16;;;;;;;37.03;15.45;;;;;;;;;;5033976;28;20049;-59
2024/01/19 03:17:42;;;;;;;34.45;14.70;;;;;;;;;;5032320;28;20045;-60
2024/01/19 03:20:09;;;;;;;36.00;15.20;;;;;;;;;;5025870;28;20515;-58
2024/01/19 03:22:35;;;;;;;35.05;14.30;;;;;;;;;;5031051;28;20052;-58
2024/01/19 03:25:02;;;;;;;39.03;15.80;;;;;;;;;;5037298;28;20480;-59
2024/01/19 03:27:28;;;;;;;33.88;15.18;;;;;;;;;;5036547;28;20034;-59
2024/01/19 03:29:56;;;;;;;35.22;14.68;;;;;;;;;;5035232;28;20045;-59
2024/01/19 03:32:22;;;;;;;30.77;14.13;;;;;;;;;;5033861;28;20045;-59
2024/01/19 03:34:49;;;;;;;31.35;13.38;;;;;;;;;;5033396;28;20378;-59
2024/01/19 03:37:15;;;;;;;32.72;14.10;;;;;;;;;;5027622;28;20029;-60
2024/01/19 03:39:41;;;;;;;33.47;13.60;;;;;;;;;;5030917;28;20045;-59
2024/01/19 03:42:07;;;;;;;34.95;14.05;;;;;;;;;;5035745;28;20057;-59
2024/01/19 03:44:33;;;;;;;37.17;14.45;;;;;;;;;;5028301;28;20029;-59
2024/01/19 03:46:59;;;;;;;32.22;14.40;;;;;;;;;;5027921;28;20404;-59
2024/01/19 03:49:26;;;;;;;32.92;14.02;;;;;;;;;;5028104;28;20036;-59
2024/01/19 03:51:58;;;;;;;32.47;13.95;;;;;;;;;;5030215;28;20046;-59
2024/01/19 03:54:24;;;;;;;32.42;13.10;;;;;;;;;;5026515;28;20037;-58
2024/01/19 03:56:50;;;;;;;35.33;14.45;;;;;;;;;;5028896;28;20045;-58
2024/01/19 03:59:16;;;;;;;31.10;13.82;;;;;;;;;;5026841;28;20409;-59
2024/01/19 04:01:42;;;;;;;32.38;14.57;;;;;;;;;;5030898;28;20036;-59
2024/01/19 04:04:08;;;;;;;32.25;13.73;;;;;;;;;;5027887;28;20109;-59
2024/01/19 04:06:34;;;;;;;30.60;13.95;;;;;;;;;;5033915;28;20045;-59
2024/01/19 04:09:01;;;;;;;27.98;13.45;;;;;;;;;;5030784;28;20037;-60
2024/01/19 04:11:27;;;;;;;34.90;14.50;;;;;;;;;;5030415;28;20033;-59
2024/01/19 04:13:53;;;;;;;57.83;18.73;;;;;;;;;;5030263;28;20036;-60
2024/01/19 04:16:19;;;;;;;47.28;18.35;;;;;;;;;;5032262;28;20049;-60
2024/01/19 04:18:46;;;;;;;52.63;19.75;;;;;;;;;;5025900;28;20040;-59
2024/01/19 04:21:12;;;;;;;47.50;18.85;;;;;;;;;;5034384;28;20048;-60
2024/01/19 04:23:38;;;;;;;40.83;17.35;;;;;;;;;;5032357;28;20052;-60
2024/01/19 04:26:05;;;;;;;32.50;15.13;;;;;;;;;;5029998;28;20053;-60
2024/01/19 04:28:31;;;;;;;36.70;15.82;;;;;;;;;;5028298;28;20052;-60
2024/01/19 04:30:57;;;;;;;31.10;15.38;;;;;;;;;;5029772;28;20048;-60
2024/01/19 04:33:23;;;;;;;36.05;16.00;;;;;;;;;;5035130;28;20060;-59
2024/01/19 04:35:49;;;;;;;37.63;16.77;;;;;;;;;;5031729;28;20033;-59
2024/01/19 04:38:15;;;;;;;37.35;16.60;;;;;;;;;;5031720;28;20412;-58
2024/01/19 04:40:41;;;;;;;36.28;15.63;;;;;;;;;;5029092;28;20052;-59
2024/01/19 04:43:07;;;;;;;37.45;16.95;;;;;;;;;;5022983;28;20048;-60
2024/01/19 04:45:34;;;;;;;38.75;16.40;;;;;;;;;;5028518;28;20033;-60
2024/01/19 04:48:00;;;;;;;33.80;15.18;;;;;;;;;;5029208;28;20076;-59
2024/01/19 04:50:26;;;;;;;38.40;15.95;;;;;;;;;;5028595;28;20037;-60
2024/01/19 04:52:52;;;;;;;34.83;15.52;;;;;;;;;;5029030;28;20041;-59
2024/01/19 04:55:18;;;;;;;34.70;15.80;;;;;;;;;;5029446;28;20049;-59
2024/01/19 04:57:45;;;;;;;39.60;14.68;;;;;;;;;;5025361;28;20056;-59
2024/01/19 05:00:15;;;;;;;39.38;17.73;;;;;;;;;;5026451;28;20441;-59
2024/01/19 05:02:42;;;;;;;;;;;;;;;;;;5030948;28;20045;-60
2024/01/19 05:05:08;;;;;;;32.65;15.43;;;;;;;;;;5029444;28;19923;-59
2024/01/19 05:07:34;;;;;;;37.28;16.83;;;;;;;;;;5026158;28;20037;-59
2024/01/19 05:10:00;;;;;;;37.03;16.88;;;;;;;;;;5031534;28;20420;-60
2024/01/19 05:12:26;;;;;;;35.50;14.65;;;;;;;;;;5027724;28;20041;-59
2024/01/19 05:14:53;;;;;;;32.00;14.50;;;;;;;;;;5031881;28;20048;-60
2024/01/19 05:17:19;;;;;;;35.42;15.73;;;;;;;;;;5034563;28;20053;-60
2024/01/19 05:19:45;;;;;;;33.28;15.77;;;;;;;;;;5029521;28;20067;-60
2024/01/19 05:22:11;;;;;;;37.08;16.83;;;;;;;;;;5032151;28;20048;-60
2024/01/19 05:24:41;;;;;;;34.08;15.85;;;;;;;;;;5037482;28;20037;-59
2024/01/19 05:27:07;;;;;;;36.08;15.32;;;;;;;;;;5029584;28;20041;-59
2024/01/19 05:29:34;;;;;;;37.13;17.30;;;;;;;;;;5032374;28;20054;-59
2024/01/19 05:32:01;;;;;;;40.63;17.25;;;;;;;;;;5033166;28;20052;-60
2024/01/19 05:34:27;;;;;;;35.47;16.38;;;;;;;;;;5033768;28;20041;-59
2024/01/19 05:36:54;;;;;;;36.25;16.10;;;;;;;;;;5033676;28;20037;-59
2024/01/19 05:39:20;;;;;;;36.28;14.88;;;;;;;;;;5029167;28;20401;-58
2024/01/19 05:41:46;;;;;;;36.33;15.43;;;;;;;;;;5028932;28;20040;-58
2024/01/19 05:44:12;;;;;;;33.72;14.50;;;;;;;;;;5029480;28;20052;-58
2024/01/19 05:46:38;;;;;;;31.58;14.73;;;;;;;;;;5030388;28;20034;-57
2024/01/19 05:49:05;;;;;;;44.83;16.73;;;;;;;;;;5026704;28;20045;-58
2024/01/19 05:51:31;;;;;;;34.83;15.10;;;;;;;;;;5029636;28;20378;-58
2024/01/19 05:54:01;;;;;;;40.28;16.00;;;;;;;;;;5030058;28;20037;-59
2024/01/19 05:56:27;;;;;;;;;;;;;;;;;;5029549;28;20048;-59
2024/01/19 05:58:53;;;;;;;37.00;15.77;;;;;;;;;;5029288;28;19924;-58
2024/01/19 06:01:21;;;;;;;31.73;14.93;;;;;;;;;;5029628;28;20046;-59
2024/01/19 06:03:47;;;;;;;39.08;16.83;;;;;;;;;;5030428;28;20049;-59
2024/01/19 06:06:13;;;;;;;34.78;16.33;;;;;;;;;;5034003;28;20033;-59
2024/01/19 06:08:39;;;;;;;37.10;16.42;;;;;;;;;;5035606;28;20037;-59
2024/01/19 06:11:05;;;;;;;37.70;17.23;;;;;;;;;;5036066;28;20052;-58
2024/01/19 06:13:31;;;;;;;31.20;15.45;;;;;;;;;;5033938;28;20067;-59
2024/01/19 06:15:57;;;;;;;37.03;16.85;;;;;;;;;;5033658;28;20048;-59
2024/01/19 06:18:23;;;;;;;40.50;16.42;;;;;;;;;;5036833;28;20053;-58
2024/01/19 06:20:51;;;;;;;35.20;16.02;;;;;;;;;;5029779;28;20040;-59
2024/01/19 06:23:17;;;;;;;37.90;16.55;;;;;;;;;;5037697;28;20048;-58
2024/01/19 06:25:44;;;;;;;45.17;17.23;;;;;;;;;;5041800;28;20472;-59
2024/01/19 06:28:10;;;;;;;43.78;18.42;;;;;;;;;;5028450;28;20049;-59
2024/01/19 06:30:37;;;;;;;45.90;18.23;;;;;;;;;;5032104;28;20026;-59
2024/01/19 06:33:05;;;;;;;39.90;17.40;;;;;;;;;;5036544;28;20053;-59
2024/01/19 06:35:31;;;;;;;41.35;18.45;;;;;;;;;;5035727;28;20040;-60
2024/01/19 06:37:58;;;;;;;43.60;19.05;;;;;;;;;;5032347;28;20433;-60
2024/01/19 06:40:24;;;;;;;36.35;16.70;;;;;;;;;;5023313;28;20404;-59
2024/01/19 06:42:50;;;;;;;30.90;16.15;;;;;;;;;;5032664;28;20034;-60
2024/01/19 06:45:16;;;;;;;36.55;16.83;;;;;;;;;;5031096;28;20033;-59
2024/01/19 06:47:43;;;;;;;41.25;19.10;;;;;;;;;;5032287;28;20064;-59
2024/01/19 06:50:10;;;;;;;40.55;19.75;;;;;;;;;;5030154;28;20041;-59
2024/01/19 06:52:36;;;;;;;43.13;18.58;;;;;;;;;;5031540;28;20042;-60
2024/01/19 06:55:02;;;;;;;37.30;17.30;;;;;;;;;;5032727;28;20053;-59
2024/01/19 06:57:28;;;;;;;44.05;20.33;;;;;;;;;;5032881;28;20041;-60
2024/01/19 06:59:54;;;;;;;41.03;19.52;;;;;;;;;;5030704;28;20401;-59
2024/01/19 07:02:21;;;;;;;41.22;19.02;;;;;;;;;;5033581;28;20408;-60
2024/01/19 07:04:48;;;;;;;40.03;17.48;;;;;;;;;;5035298;28;20493;-58
2024/01/19 07:07:14;;;;;;;42.05;18.63;;;;;;;;;;5032200;28;20064;-59
2024/01/19 07:09:40;;;;;;;41.30;18.33;;;;;;;;;;5033013;28;20398;-58
2024/01/19 07:12:06;;;;;;;44.30;18.35;;;;;;;;;;5034337;28;20045;-58
2024/01/19 07:14:32;;;;;;;45.40;19.15;;;;;;;;;;5036330;28;20045;-58
2024/01/19 07:16:58;;;;;;;48.38;21.92;;;;;;;;;;5033040;28;20033;-58
2024/01/19 07:19:25;;;;;;;43.72;20.85;;;;;;;;;;5034979;28;20037;-59
2024/01/19 07:21:51;;;;;;;45.92;20.10;;;;;;;;;;5027963;28;20060;-59
2024/01/19 07:24:17;;;;;;;43.30;19.60;;;;;;;;;;5035112;28;20093;-60
2024/01/19 07:26:44;;;;;;;43.33;19.92;;;;;;;;;;5040189;28;20048;-59
2024/01/19 07:29:10;;;;;;;47.28;21.67;;;;;;;;;;5027081;28;20056;-59
2024/01/19 07:31:37;;;;;;;44.83;21.13;;;;;;;;;;5034926;28;20033;-59
2024/01/19 07:34:03;;;;;;;47.08;23.25;;;;;;;;;;5034445;28;20135;-58
2024/01/19 07:36:30;;;;;;;47.35;22.08;;;;;;;;;;5034873;28;20042;-58
2024/01/19 07:38:58;;;;;;;56.07;24.10;;;;;;;;;;5029852;28;20045;-59
2024/01/19 07:41:24;;;;;;;74.95;32.72;;;;;;;;;;5029375;28;20050;-59
2024/01/19 07:43:50;;;;;;;60.33;27.88;;;;;;;;;;5029524;28;20037;-59
2024/01/19 07:46:16;;;;;;;48.53;22.60;;;;;;;;;;5031556;28;20041;-59
2024/01/19 07:48:42;;;;;;;46.45;21.02;;;;;;;;;;5029090;28;20056;-59
2024/01/19 07:51:09;;;;;;;45.92;21.05;;;;;;;;;;5031909;28;20048;-59
2024/01/19 07:53:35;;;;;;;39.22;18.15;;;;;;;;;;5028597;28;20033;-58
2024/01/19 07:56:01;;;;;;;39.90;17.95;;;;;;;;;;5027586;28;20420;-60
2024/01/19 07:58:30;;;;;;;39.45;19.23;;;;;;;;;;5031622;28;20523;-60
2024/01/19 08:00:56;;;;;;;42.45;18.75;;;;;;;;;;5029710;28;20050;-58
2024/01/19 08:03:22;;;;;;;44.90;17.63;;;;;;;;;;5031156;28;20037;-59
2024/01/19 08:05:48;;;;;;;38.28;17.23;;;;;;;;;;5033605;28;20052;-59
2024/01/19 08:08:15;;;;;;;35.90;16.63;;;;;;;;;;5033214;28;20033;-59
2024/01/19 08:10:41;;;;;;;38.58;17.60;;;;;;;;;;5032368;28;20030;-59
2024/01/19 08:13:07;;;;;;;40.58;19.52;;;;;;;;;;5033833;28;20064;-59
2024/01/19 08:15:34;;;;;;;45.45;18.02;;;;;;;;;;5034163;28;20044;-59
2024/01/19 08:18:00;;;;;;;38.95;18.90;;;;;;;;;;5035290;28;20052;-60
2024/01/19 08:20:27;;;;;;;45.60;19.40;;;;;;;;;;5032650;28;20037;-59
2024/01/19 08:22:53;;;;;;;43.10;20.25;;;;;;;;;;5033825;28;20041;-58
2024/01/19 08:25:19;;;;;;;48.42;23.50;;;;;;;;;;5036333;28;20448;-58
2024/01/19 08:27:46;;;;;;;33.05;17.60;;;;;;;;;;5035042;28;20044;-59
2024/01/19 08:30:12;;;;;;;31.75;16.48;;;;;;;;;;5031372;28;20574;-59
2024/01/19 08:32:38;;;;;;;32.45;14.75;;;;;;;;;;5032359;28;20048;-59
2024/01/19 08:35:08;;;;;;;43.63;17.98;;;;;;;;;;5031232;28;20037;-58
2024/01/19 08:37:38;;;;;;;35.08;15.73;;;;;;;;;;5030388;28;20056;-58
2024/01/19 08:40:09;;;;;;;32.38;15.93;;;;;;;;;;5029060;28;20075;-59
2024/01/19 08:42:36;;;;;;;31.23;14.15;;;;;;;;;;5021941;28;20041;-59
2024/01/19 08:45:02;;;;;;;30.83;15.30;;;;;;;;;;5030052;28;20521;-59
2024/01/19 08:47:29;;;;;;;33.35;15.55;;;;;;;;;;5029901;28;20046;-60
2024/01/19 08:49:55;;;;;;;39.25;17.48;;;;;;;;;;5027253;28;20029;-58
2024/01/19 08:52:21;;;;;;;37.10;17.25;;;;;;;;;;5031473;28;20040;-58
2024/01/19 08:54:47;;;;;;;36.38;16.45;;;;;;;;;;5031273;28;20052;-58
2024/01/19 08:57:14;;;;;;;34.15;15.65;;;;;;;;;;5028507;28;20493;-58
2024/01/19 08:59:40;;;;;;;38.97;17.40;;;;;;;;;;5028538;28;20045;-59
2024/01/19 09:02:07;;;;;;;31.95;16.30;;;;;;;;;;5031249;28;20432;-58
2024/01/19 09:04:36;;;;;;;37.80;17.10;;;;;;;;;;5030061;28;20037;-59
2024/01/19 09:07:02;;;;;;;30.40;14.75;;;;;;;;;;5034905;28;20036;-59
2024/01/19 09:09:28;;;;;;;34.05;16.67;;;;;;;;;;5032300;28;20045;-59
2024/01/19 09:11:56;;;;;;;31.77;14.10;;;;;;;;;;5030966;28;20029;-58
2024/01/19 09:14:23;;;;;;;27.40;13.88;;;;;;;;;;5032427;28;20046;-59
2024/01/19 09:16:49;;;;;;;37.25;17.02;;;;;;;;;;5037068;28;20056;-59
2024/01/19 09:19:15;;;;;;;35.42;17.27;;;;;;;;;;5028245;28;20041;-59
2024/01/19 09:21:45;;;;;;;35.75;15.13;;;;;;;;;;5024140;28;20431;-59
2024/01/19 09:24:11;;;;;;;31.38;14.15;;;;;;;;;;5028258;28;20087;-59
2024/01/19 09:26:38;;;;;;;30.05;13.63;;;;;;;;;;5028893;28;20104;-59
2024/01/19 09:29:05;;;;;;;31.63;14.45;;;;;;;;;;5033318;28;20044;-60
2024/01/19 09:31:31;;;;;;;35.67;15.18;;;;;;;;;;5027977;28;20029;-60
2024/01/19 09:33:57;;;;;;;31.30;13.95;;;;;;;;;;5025929;28;20041;-58
2024/01/19 09:36:23;;;;;;;26.45;12.57;;;;;;;;;;5027452;28;20029;-59
2024/01/19 09:38:49;;;;;;;28.20;14.15;;;;;;;;;;5027917;28;20041;-59
2024/01/19 09:41:37;;;;;;;32.42;15.30;;;;;;;;;;5028414;28;20052;-59
2024/01/19 09:44:07;;;;;;;33.60;15.23;;;;;;;;;;5028130;28;20048;-59
2024/01/19 09:46:52;;;;;;;29.17;14.15;;;;;;;;;;5029412;28;20037;-59
2024/01/19 09:49:56;;;;;;;30.33;14.57;;;;;;;;;;5027427;28;20425;-60
2024/01/19 09:52:24;;;;;;;30.85;13.82;;;;;;;;;;5029131;28;20044;-59
2024/01/19 09:54:51;;;;;;;34.05;17.23;;;;;;;;;;5031910;28;20033;-57
2024/01/19 09:57:17;;;;;;;34.88;15.93;;;;;;;;;;5028612;28;20041;-59
2024/01/19 09:59:43;;;;;;;27.42;13.98;;;;;;;;;;5026774;28;20516;-59
2024/01/19 10:02:09;;;;;;;29.30;12.52;;;;;;;;;;5030479;28;20052;-58
2024/01/19 10:04:36;;;;;;;28.40;14.20;;;;;;;;;;5028316;28;20042;-58
2024/01/19 10:07:03;;;;;;;27.35;13.82;;;;;;;;;;5031863;28;20060;-59
2024/01/19 10:09:30;;;;;;;31.48;14.90;;;;;;;;;;5030964;28;20049;-59
2024/01/19 10:11:56;;;;;;;33.53;15.73;;;;;;;;;;5029959;28;20025;-58
2024/01/19 10:14:23;;;;;;;32.92;15.30;;;;;;;;;;5034204;28;20044;-59
2024/01/19 10:16:51;;;;;;;39.30;14.35;;;;;;;;;;5031440;28;20045;-59
2024/01/19 10:19:20;;;;;;;33.58;14.90;;;;;;;;;;5027047;28;20033;-59
2024/01/19 10:21:46;;;;;;;34.97;15.50;;;;;;;;;;5035511;28;20053;-59
2024/01/19 10:24:15;;;;;;;32.47;16.50;;;;;;;;;;5031855;28;20044;-58
2024/01/19 10:26:42;;;;;;;34.42;16.63;;;;;;;;;;5031453;28;20037;-60
2024/01/19 10:29:12;;;;;;;31.92;15.38;;;;;;;;;;5033718;28;20041;-59
2024/01/19 10:31:43;;;;;;;29.65;14.68;;;;;;;;;;5036224;28;20033;-59
2024/01/19 10:34:23;;;;;;;29.50;14.55;;;;;;;;;;5026285;28;20049;-58
2024/01/19 10:36:51;;;;;;;34.50;17.30;;;;;;;;;;5025248;28;20049;-59
2024/01/19 10:39:24;;;;;;;27.90;13.90;;;;;;;;;;5029036;28;20472;-58
2024/01/19 10:41:51;;;;;;;34.03;13.90;;;;;;;;;;5027284;28;20042;-59
2024/01/19 10:44:21;;;;;;;27.77;13.55;;;;;;;;;;5029583;28;20038;-59
2024/01/19 10:46:49;;;;;;;27.88;14.70;;;;;;;;;;5029425;28;20048;-59
2024/01/19 10:49:16;;;;;;;29.58;14.13;;;;;;;;;;5026766;28;20045;-59
2024/01/19 10:51:44;;;;;;;26.63;13.77;;;;;;;;;;5030199;28;20032;-58
2024/01/19 10:54:17;;;;;;;32.78;15.98;;;;;;;;;;5027960;28;20064;-59
2024/01/19 10:56:45;;;;;;;30.33;14.13;;;;;;;;;;5033813;28;20037;-58
2024/01/19 10:59:12;;;;;;;28.45;13.45;;;;;;;;;;5032140;28;20033;-59
2024/01/19 11:01:39;;;;;;;28.45;13.50;;;;;;;;;;5034152;28;20038;-59
2024/01/19 11:04:08;;;;;;;27.63;13.52;;;;;;;;;;5033255;28;20412;-59
2024/01/19 11:06:38;;;;;;;21.63;11.50;;;;;;;;;;5036932;28;20030;-58
2024/01/19 11:09:08;;;;;;;25.67;12.10;;;;;;;;;;5029128;28;20040;-59
2024/01/19 11:11:46;;;;;;;;;;;;;;;;;;5035895;28;20034;-58
2024/01/19 11:14:17;;;;;;;23.92;11.18;;;;;;;;;;5032835;28;19913;-60
2024/01/19 11:16:47;;;;;;;28.10;12.25;;;;;;;;;;5036722;28;20036;-58
2024/01/19 11:19:17;;;;;;;;;;;;;;;;;;5034176;28;20050;-59
2024/01/19 11:21:43;;;;;;;;;;;;;;;;;;5036300;28;19920;-59
2024/01/19 11:24:11;;;;;;;24.85;11.60;;;;;;;;;;5036908;28;19923;-59
2024/01/19 11:26:49;;;;;;;25.52;11.77;;;;;;;;;;5031379;28;20424;-59
2024/01/19 11:29:21;;;;;;;19.50;11.25;;;;;;;;;;5031139;28;20040;-59
2024/01/19 11:31:48;;;;;;;21.92;11.13;;;;;;;;;;5021431;28;20398;-59
2024/01/19 11:34:47;;;;;;;24.98;11.60;;;;;;;;;;5031516;28;20528;-60
2024/01/19 11:37:38;;;;;;;22.48;10.77;;;;;;;;;;5029290;28;20041;-58
2024/01/19 11:40:05;;;;;;;20.27;10.40;;;;;;;;;;5029524;28;20049;-60
2024/01/19 11:42:34;;;;;;;24.58;11.57;;;;;;;;;;5029584;28;20416;-58
2024/01/19 11:45:01;;;;;;;25.48;12.35;;;;;;;;;;5030119;28;20408;-58
2024/01/19 11:47:47;;;;;;;25.45;13.18;;;;;;;;;;5030428;28;20041;-59
2024/01/19 11:50:13;;;;;;;20.17;10.15;;;;;;;;;;5029206;28;20416;-58
2024/01/19 11:52:43;;;;;;;18.80;9.63;;;;;;;;;;5029297;28;20034;-58
2024/01/19 11:55:25;;;;;;;23.27;10.95;;;;;;;;;;5032298;28;20060;-59
2024/01/19 11:57:55;;;;;;;21.77;10.18;;;;;;;;;;5033807;28;20041;-59
2024/01/19 12:00:22;;;;;;;21.23;11.27;;;;;;;;;;5030782;28;20034;-59
2024/01/19 12:02:49;;;;;;;24.27;10.77;;;;;;;;;;5031335;28;20412;-59
2024/01/19 12:05:20;;;;;;;20.40;10.40;;;;;;;;;;5030818;28;20041;-60
2024/01/19 12:07:46;;;;;;;22.02;11.80;;;;;;;;;;5051339;28;20040;-60
2024/01/19 12:10:18;;;;;;;18.98;11.02;;;;;;;;;;5034632;28;20041;-60
2024/01/19 12:12:46;;;;;;;19.65;10.90;;;;;;;;;;5034632;28;20045;-60
2024/01/19 12:15:15;;;;;;;19.83;10.82;;;;;;;;;;5034649;28;20045;-61
2024/01/19 12:17:42;;;;;;;18.10;10.23;;;;;;;;;;5026376;28;20049;-60
2024/01/19 12:20:10;;;;;;;18.00;10.13;;;;;;;;;;5029241;28;20064;-60
2024/01/19 12:22:37;;;;;;;18.85;10.23;;;;;;;;;;5033930;28;20052;-61
2024/01/19 12:25:16;;;;;;;20.92;10.35;;;;;;;;;;5033763;28;20053;-62
2024/01/19 12:27:43;;;;;;;;;;;;;;;;;;5022700;28;20029;-63
2024/01/19 12:30:16;;;;;;;21.85;11.18;;;;;;;;;;5027795;28;19941;-64
2024/01/19 12:32:44;;;;;;;23.23;12.85;;;;;;;;;;5026408;28;20061;-64
2024/01/19 12:35:13;;;;;;;24.48;12.15;;;;;;;;;;5028743;28;20086;-63
2024/01/19 12:37:39;;;;;;;21.98;11.85;;;;;;;;;;5031558;28;20029;-63
2024/01/19 12:40:21;;;;;;;25.23;13.52;;;;;;;;;;5028141;28;20429;-63
2024/01/19 12:42:47;;;;;;;22.17;11.93;;;;;;;;;;5029596;28;20048;-63
2024/01/19 12:45:15;;;;;;;18.67;11.02;;;;;;;;;;5031966;28;20048;-64
2024/01/19 12:47:42;;;;;;;18.25;10.50;;;;;;;;;;5030209;28;20044;-63
2024/01/19 12:50:09;;;;;;;24.25;12.30;;;;;;;;;;5029420;28;20053;-64
2024/01/19 12:52:35;;;;;;;21.98;11.73;;;;;;;;;;5032503;28;20053;-63
2024/01/19 12:55:03;;;;;;;17.85;10.43;;;;;;;;;;5027164;28;20037;-63
2024/01/19 12:57:30;;;;;;;22.02;11.57;;;;;;;;;;5029953;28;20656;-63
2024/01/19 13:00:10;;;;;;;21.08;10.82;;;;;;;;;;5025144;28;20037;-63
2024/01/19 13:02:38;;;;;;;18.48;9.90;;;;;;;;;;5031822;28;20041;-63
2024/01/19 13:05:06;;;;;;;21.23;10.85;;;;;;;;;;5028971;28;20489;-63
2024/01/19 13:07:33;;;;;;;19.85;11.10;;;;;;;;;;5028369;28;20037;-63
2024/01/19 13:10:03;;;;;;;18.13;10.25;;;;;;;;;;5032594;28;20041;-63
2024/01/19 13:12:30;;;;;;;19.63;11.20;;;;;;;;;;5035110;28;20517;-63
2024/01/19 13:15:07;;;;;;;20.88;10.82;;;;;;;;;;5033541;28;20033;-63
2024/01/19 13:17:42;;;;;;;18.27;9.63;;;;;;;;;;5031563;28;20049;-63
2024/01/19 13:20:11;;;;;;;20.58;10.48;;;;;;;;;;5030030;28;20045;-63
2024/01/19 13:22:39;;;;;;;19.45;11.52;;;;;;;;;;5038011;28;20037;-63
2024/01/19 13:25:07;;;;;;;18.00;10.35;;;;;;;;;;5031223;28;20041;-63
2024/01/19 13:27:35;;;;;;;22.48;11.57;;;;;;;;;;5032661;28;20052;-62
2024/01/19 13:30:03;;;;;;;24.00;12.27;;;;;;;;;;5030969;28;20040;-62
2024/01/19 13:32:29;;;;;;;18.38;10.45;;;;;;;;;;5024461;28;20420;-62
2024/01/19 13:34:57;;;;;;;16.00;9.30;;;;;;;;;;5021036;28;20053;-63
2024/01/19 13:37:23;;;;;;;15.20;9.35;;;;;;;;;;5027877;28;20045;-63
2024/01/19 13:39:52;;;;;;;16.85;9.05;;;;;;;;;;5027128;28;20037;-61
2024/01/19 13:42:20;;;;;;;18.05;9.07;;;;;;;;;;5024767;28;20044;-63
2024/01/19 13:44:46;;;;;;;14.57;9.23;;;;;;;;;;5025490;28;20033;-63
2024/01/19 13:47:12;;;;;;;13.82;8.55;;;;;;;;;;5029188;28;20042;-62
2024/01/19 13:49:38;;;;;;;17.58;10.13;;;;;;;;;;5029309;28;20029;-63
2024/01/19 13:52:06;;;;;;;19.77;9.75;;;;;;;;;;5031635;28;20041;-63
2024/01/19 13:54:33;;;;;;;19.88;10.30;;;;;;;;;;5026051;28;20053;-62
2024/01/19 13:56:59;;;;;;;15.68;9.35;;;;;;;;;;5027599;28;20041;-60
2024/01/19 13:59:26;;;;;;;19.05;9.48;;;;;;;;;;5027034;28;20049;-59
2024/01/19 14:01:52;;;;;;;17.52;9.43;;;;;;;;;;5031905;28;20074;-59
2024/01/19 14:04:18;;;;;;;26.10;12.70;;;;;;;;;;5026826;28;20041;-61
2024/01/19 14:06:45;;;;;;;21.10;11.25;;;;;;;;;;5030374;28;20048;-59
2024/01/19 14:09:11;;;;;;;19.20;10.52;;;;;;;;;;5030352;28;20046;-61
2024/01/19 14:11:39;;;;;;;18.10;10.07;;;;;;;;;;5034582;28;20052;-60
2024/01/19 14:14:05;;;;;;;16.92;9.52;;;;;;;;;;5033114;28;20037;-61
2024/01/19 14:16:31;;;;;;;19.50;9.38;;;;;;;;;;5025433;28;20052;-61
2024/01/19 14:18:57;;;;;;;21.40;9.40;;;;;;;;;;5027134;28;20045;-61
2024/01/19 14:21:24;;;;;;;17.52;9.15;;;;;;;;;;5032889;28;20048;-62
2024/01/19 14:23:50;;;;;;;15.82;8.68;;;;;;;;;;5034796;28;20041;-61